createdAt,value
2019-03-15T00:00:42.714Z,22.00
2019-03-15T00:03:20.186Z,22.10
2019-03-15T00:05:56.955Z,22.20
2019-03-15T00:08:33.611Z,21.90
2019-03-15T00:11:10.301Z,21.80
2019-03-15T00:13:47.157Z,21.90
2019-03-15T00:16:23.683Z,22.10
2019-03-15T00:19:00.198Z,22.30
2019-03-15T00:21:36.881Z,22.50
2019-03-15T00:24:15.158Z,22.70
2019-03-15T00:26:52.200Z,22.80
2019-03-15T00:29:29.070Z,22.70
2019-03-15T00:32:05.684Z,22.90
2019-03-15T00:34:42.763Z,23.00
2019-03-15T00:37:20.676Z,23.20
2019-03-15T00:39:58.332Z,23.40
2019-03-15T00:42:34.723Z,23.40
2019-03-15T00:45:12.643Z,23.60
2019-03-15T00:47:49.549Z,23.70
2019-03-15T00:50:26.329Z,23.80
2019-03-15T00:53:03.145Z,24.00
2019-03-15T00:55:40.178Z,24.10
2019-03-15T00:58:16.649Z,24.20
2019-03-15T01:00:53.292Z,24.30
2019-03-15T01:03:29.988Z,24.50
2019-03-15T01:06:06.675Z,24.60
2019-03-15T01:08:43.575Z,24.80
2019-03-15T01:11:20.343Z,24.80
2019-03-15T01:13:57.373Z,24.90
2019-03-15T01:16:34.701Z,25.10
2019-03-15T01:19:11.638Z,25.30
2019-03-15T01:21:48.370Z,25.40
2019-03-15T01:24:25.238Z,25.50
2019-03-15T01:27:02.305Z,25.70
2019-03-15T01:29:38.822Z,25.80
2019-03-15T01:32:15.492Z,26.00
2019-03-15T01:34:53.347Z,26.10
2019-03-15T01:37:30.269Z,26.10
2019-03-15T01:40:07.024Z,26.30
2019-03-15T01:42:43.843Z,26.50
2019-03-15T01:45:20.443Z,26.50
2019-03-15T01:47:58.262Z,26.70
2019-03-15T01:50:36.484Z,26.90
2019-03-15T01:53:13.529Z,27.00
2019-03-15T01:55:50.528Z,27.10
2019-03-15T01:58:27.661Z,27.10
2019-03-15T02:01:04.639Z,27.20
2019-03-15T02:03:41.486Z,27.30
2019-03-15T02:06:18.681Z,27.30
2019-03-15T02:08:55.824Z,27.60
2019-03-15T02:11:32.383Z,27.70
2019-03-15T02:14:09.500Z,27.90
2019-03-15T02:16:45.289Z,28.10
2019-03-15T02:19:22.158Z,28.30
2019-03-15T02:21:58.731Z,28.40
2019-03-15T02:24:36.546Z,28.70
2019-03-15T02:27:13.478Z,28.70
2019-03-15T02:29:50.293Z,28.70
2019-03-15T02:32:27.121Z,28.90
2019-03-15T02:35:04.069Z,29.00
2019-03-15T02:37:42.521Z,29.20
2019-03-15T02:40:19.224Z,29.30
2019-03-15T02:42:56.455Z,29.50
2019-03-15T02:45:35.173Z,29.60
2019-03-15T02:48:13.485Z,29.60
2019-03-15T02:50:50.071Z,29.80
2019-03-15T02:53:27.171Z,29.90
2019-03-15T02:56:04.921Z,30.10
2019-03-15T02:58:41.507Z,30.20
2019-03-15T03:01:18.256Z,30.30
2019-03-15T03:03:54.837Z,30.30
2019-03-15T03:06:31.518Z,30.50
2019-03-15T03:09:09.017Z,30.50
2019-03-15T03:11:45.392Z,30.40
2019-03-15T03:14:22.648Z,30.50
2019-03-15T03:16:59.812Z,30.70
2019-03-15T03:19:36.359Z,30.70
2019-03-15T03:22:13.366Z,30.70
2019-03-15T03:24:50.907Z,31.00
2019-03-15T03:27:27.908Z,31.10
2019-03-15T03:30:05.126Z,31.00
2019-03-15T03:32:44.167Z,31.00
2019-03-15T03:35:20.363Z,31.10
2019-03-15T03:37:57.108Z,31.20
2019-03-15T03:40:36.391Z,31.40
2019-03-15T03:43:14.920Z,31.50
2019-03-15T03:45:51.866Z,31.70
2019-03-15T03:48:31.189Z,31.90
2019-03-15T03:51:08.740Z,31.80
2019-03-15T03:53:45.430Z,32.00
2019-03-15T03:56:22.186Z,32.10
2019-03-15T03:58:58.832Z,32.10
2019-03-15T04:01:35.765Z,32.10
2019-03-15T04:04:12.955Z,32.10
2019-03-15T04:06:49.962Z,32.00
2019-03-15T04:09:26.849Z,32.20
2019-03-15T04:12:03.766Z,32.40
2019-03-15T04:14:41.024Z,32.30
2019-03-15T04:17:17.814Z,32.10
2019-03-15T04:19:55.428Z,32.30
2019-03-15T04:22:31.900Z,32.40
2019-03-15T04:25:09.052Z,32.50
2019-03-15T04:27:46.858Z,32.40
2019-03-15T04:30:24.865Z,32.50
2019-03-15T04:33:03.633Z,32.80
2019-03-15T04:35:40.871Z,32.70
2019-03-15T04:38:18.695Z,32.90
2019-03-15T04:40:55.582Z,32.70
2019-03-15T04:43:32.119Z,32.90
2019-03-15T04:46:08.312Z,32.70
2019-03-15T04:48:45.664Z,32.80
2019-03-15T04:51:22.450Z,33.00
2019-03-15T04:53:59.632Z,33.10
2019-03-15T04:56:36.225Z,33.30
2019-03-15T04:59:13.656Z,33.50
2019-03-15T05:01:50.697Z,33.40
2019-03-15T05:04:27.361Z,33.50
2019-03-15T05:07:06.133Z,33.90
2019-03-15T05:09:42.749Z,33.50
2019-03-15T05:12:20.053Z,33.30
2019-03-15T05:14:56.231Z,33.30
2019-03-15T05:17:33.156Z,33.30
2019-03-15T05:20:10.048Z,33.60
2019-03-15T05:22:46.854Z,33.70
2019-03-15T05:25:23.635Z,33.80
2019-03-15T05:28:00.549Z,33.90
2019-03-15T05:30:37.092Z,33.90
2019-03-15T05:33:14.632Z,34.00
2019-03-15T05:35:51.768Z,33.90
2019-03-15T05:38:28.949Z,33.80
2019-03-15T05:41:05.551Z,34.00
2019-03-15T05:43:41.981Z,34.00
2019-03-15T05:46:18.385Z,34.10
2019-03-15T05:48:55.207Z,34.10
2019-03-15T05:51:31.963Z,34.10
2019-03-15T05:54:09.092Z,34.40
2019-03-15T05:56:45.742Z,34.50
2019-03-15T05:59:22.820Z,34.10
2019-03-15T06:01:59.476Z,34.20
2019-03-15T06:04:36.206Z,34.50
2019-03-15T06:07:12.740Z,34.40
2019-03-15T06:09:50.423Z,34.40
2019-03-15T06:12:27.107Z,34.70
2019-03-15T06:15:06.670Z,34.70
2019-03-15T06:17:43.320Z,34.80
2019-03-15T06:20:19.860Z,34.90
2019-03-15T06:22:56.245Z,34.70
2019-03-15T06:25:32.635Z,34.60
2019-03-15T06:28:09.406Z,34.60
2019-03-15T06:30:46.156Z,34.60
2019-03-15T06:33:22.757Z,34.40
2019-03-15T06:35:59.467Z,34.50
2019-03-15T06:38:36.835Z,34.40
2019-03-15T06:41:14.497Z,34.70
2019-03-15T06:43:51.733Z,34.70
2019-03-15T06:46:28.110Z,34.60
2019-03-15T06:49:04.894Z,34.80
2019-03-15T06:51:44.080Z,34.80
2019-03-15T06:54:20.976Z,35.00
2019-03-15T06:56:57.898Z,34.70
2019-03-15T06:59:34.996Z,34.80
2019-03-15T07:02:11.516Z,35.10
2019-03-15T07:04:48.645Z,35.30
2019-03-15T07:07:25.456Z,35.20
2019-03-15T07:10:02.112Z,35.20
2019-03-15T07:12:40.108Z,35.10
2019-03-15T07:15:18.085Z,35.20
2019-03-15T07:17:55.228Z,34.90
2019-03-15T07:20:32.093Z,35.00
2019-03-15T07:23:08.717Z,35.20
2019-03-15T07:25:45.660Z,35.10
2019-03-15T07:28:22.395Z,35.10
2019-03-15T07:30:59.315Z,35.00
2019-03-15T07:33:38.212Z,34.80
2019-03-15T07:36:14.856Z,34.80
2019-03-15T07:38:51.335Z,34.80
2019-03-15T07:41:29.942Z,34.90
2019-03-15T07:44:06.814Z,35.00
2019-03-15T07:46:43.518Z,35.10
2019-03-15T07:49:20.410Z,35.10
2019-03-15T07:51:56.834Z,35.10
2019-03-15T07:54:45.379Z,35.10
2019-03-15T07:57:22.366Z,35.10
2019-03-15T07:59:59.385Z,35.10
2019-03-15T08:02:36.290Z,35.00
2019-03-15T08:05:13.514Z,35.00
2019-03-15T08:07:50.294Z,35.00
2019-03-15T08:10:27.405Z,35.00
2019-03-15T08:13:03.942Z,34.80
2019-03-15T08:15:40.370Z,34.80
2019-03-15T08:18:17.318Z,34.90
2019-03-15T08:20:54.492Z,34.90
2019-03-15T08:23:31.072Z,34.90
2019-03-15T08:26:07.983Z,35.10
2019-03-15T08:28:44.599Z,35.10
2019-03-15T08:31:23.353Z,34.70
2019-03-15T08:33:59.939Z,34.80
2019-03-15T08:36:36.583Z,34.90
2019-03-15T08:39:13.663Z,34.80
2019-03-15T08:41:50.449Z,34.70
2019-03-15T08:44:26.785Z,34.70
2019-03-15T08:47:03.594Z,34.80
2019-03-15T08:49:39.998Z,34.80
2019-03-15T08:52:16.962Z,34.60
2019-03-15T08:55:04.557Z,34.50
2019-03-15T08:57:32.650Z,34.40
2019-03-15T09:00:09.838Z,34.40
2019-03-15T09:02:47.224Z,34.50
2019-03-15T09:05:23.932Z,34.50
2019-03-15T09:08:02.056Z,34.40
2019-03-15T09:13:11.569Z,34.60
2019-03-15T09:15:50.289Z,34.50
2019-03-15T09:18:29.657Z,34.40
2019-03-15T09:21:07.773Z,34.50
2019-03-15T09:23:47.590Z,34.40
2019-03-15T09:26:25.759Z,34.20
2019-03-15T09:29:04.081Z,34.20
2019-03-15T09:31:47.781Z,34.20
2019-03-15T09:34:22.248Z,34.30
2019-03-15T09:37:00.600Z,34.30
2019-03-15T09:39:38.949Z,34.20
2019-03-15T09:42:17.278Z,34.20
2019-03-15T09:44:55.913Z,34.20
2019-03-15T09:47:34.015Z,34.20
2019-03-15T09:50:22.914Z,34.00
2019-03-15T09:52:52.610Z,33.70
2019-03-15T09:55:33.327Z,33.90
2019-03-15T09:58:10.280Z,33.90
2019-03-15T10:00:49.053Z,33.90
2019-03-15T10:03:27.207Z,33.80
2019-03-15T10:06:15.435Z,33.90
2019-03-15T10:08:45.509Z,33.80
2019-03-15T10:11:24.996Z,33.80
2019-03-15T10:14:03.162Z,33.60
2019-03-15T10:16:41.660Z,33.50
2019-03-15T10:19:23.137Z,33.50
2019-03-15T10:22:01.847Z,33.40
2019-03-15T10:24:39.729Z,33.50
2019-03-15T10:27:18.357Z,33.40
2019-03-15T10:29:56.878Z,33.30
2019-03-15T10:32:35.318Z,33.20
2019-03-15T10:35:14.597Z,33.10
2019-03-15T10:37:53.054Z,32.90
2019-03-15T10:40:31.662Z,32.80
2019-03-15T10:43:10.064Z,32.70
2019-03-15T10:45:48.891Z,32.40
2019-03-15T10:48:28.442Z,32.40
2019-03-15T10:51:07.126Z,32.30
2019-03-15T10:53:45.485Z,32.10
2019-03-15T10:56:23.754Z,32.00
2019-03-15T10:59:02.475Z,31.90
2019-03-15T11:01:41.094Z,31.90
2019-03-15T11:04:19.825Z,31.80
2019-03-15T11:06:58.184Z,31.60
2019-03-15T11:09:36.973Z,31.50
2019-03-15T11:12:15.259Z,31.40
2019-03-15T11:14:54.105Z,31.30
2019-03-15T11:17:32.486Z,31.20
2019-03-15T11:20:11.544Z,31.10
2019-03-15T11:22:50.031Z,31.00
2019-03-15T11:25:28.797Z,30.90
2019-03-15T11:28:07.104Z,30.80
2019-03-15T11:30:45.522Z,30.80
2019-03-15T11:33:24.022Z,30.80
2019-03-15T11:36:03.509Z,30.70
2019-03-15T11:38:42.472Z,30.60
2019-03-15T11:41:21.229Z,30.60
2019-03-15T11:44:16.660Z,30.50
2019-03-15T11:46:55.398Z,30.40
2019-03-15T11:49:33.911Z,30.30
2019-03-15T11:52:12.426Z,30.10
2019-03-15T11:54:50.955Z,30.00
2019-03-15T11:57:29.627Z,29.80
2019-03-15T12:00:07.969Z,29.60
2019-03-15T12:02:46.833Z,29.50
2019-03-15T12:05:25.008Z,29.40
2019-03-15T12:08:03.739Z,29.30
2019-03-15T12:10:42.233Z,29.30
2019-03-15T12:13:20.801Z,29.30
2019-03-15T12:15:59.067Z,29.30
2019-03-15T12:21:17.118Z,29.20
2019-03-15T12:23:55.376Z,29.00
2019-03-15T12:26:40.267Z,29.00
2019-03-15T12:29:13.543Z,28.90
2019-03-15T12:31:52.223Z,28.90
2019-03-15T12:34:30.418Z,28.90
2019-03-15T12:37:09.455Z,28.80
2019-03-15T12:39:48.040Z,28.70
2019-03-15T12:42:25.828Z,29.00
2019-03-15T12:45:04.063Z,29.00
2019-03-15T12:47:42.543Z,28.80
2019-03-15T12:50:22.481Z,28.80
2019-03-15T12:53:01.005Z,28.90
2019-03-15T12:55:39.394Z,28.80
2019-03-15T12:58:17.827Z,28.70
2019-03-15T13:00:56.294Z,28.60
2019-03-15T13:03:34.694Z,28.50
2019-03-15T13:06:12.680Z,28.70
2019-03-15T13:08:51.271Z,28.80
2019-03-15T13:11:31.001Z,28.60
2019-03-15T13:14:09.136Z,28.60
2019-03-15T13:16:47.438Z,28.50
2019-03-15T13:19:26.232Z,28.40
2019-03-15T13:22:04.671Z,28.40
2019-03-15T13:24:43.340Z,28.50
2019-03-15T13:27:21.727Z,28.70
2019-03-15T13:30:00.419Z,28.70
2019-03-15T13:32:38.662Z,28.60
2019-03-15T13:35:17.792Z,28.60
2019-03-15T13:37:56.097Z,28.60
2019-03-15T13:40:34.840Z,28.80
2019-03-15T13:43:14.243Z,28.80
2019-03-15T13:45:52.722Z,28.90
2019-03-15T13:48:30.675Z,29.10
2019-03-15T13:51:09.038Z,29.00
2019-03-15T13:53:47.202Z,29.00
2019-03-15T13:56:25.975Z,29.00
2019-03-15T13:59:03.938Z,29.10
2019-03-15T14:01:42.525Z,29.20
2019-03-15T14:04:21.168Z,29.10
2019-03-15T14:06:59.710Z,29.10
2019-03-15T14:09:37.842Z,29.10
2019-03-15T14:12:16.451Z,29.00
2019-03-15T14:14:55.121Z,29.00
2019-03-15T14:17:33.687Z,28.90
2019-03-15T14:20:13.320Z,28.80
2019-03-15T14:22:51.801Z,28.90
2019-03-15T14:25:30.386Z,29.00
2019-03-15T14:28:08.826Z,29.00
2019-03-15T14:30:47.299Z,29.00
2019-03-15T14:33:25.630Z,29.00
2019-03-15T14:36:04.546Z,28.90
2019-03-15T14:38:43.115Z,28.90
2019-03-15T14:41:22.131Z,28.90
2019-03-15T14:44:00.302Z,29.00
2019-03-15T14:46:38.724Z,28.90
2019-03-15T14:49:17.043Z,29.00
2019-03-15T14:51:55.355Z,28.90
2019-03-15T14:54:33.646Z,28.80
2019-03-15T14:57:12.035Z,28.80
2019-03-15T14:59:50.717Z,28.60
2019-03-15T15:02:29.116Z,28.40
2019-03-15T15:05:07.641Z,28.30
2019-03-15T15:07:46.843Z,28.20
2019-03-15T15:10:25.006Z,28.10
2019-03-15T15:13:03.670Z,28.20
2019-03-15T15:15:43.100Z,28.20
2019-03-15T15:18:21.862Z,28.20
2019-03-15T15:21:00.499Z,28.10
2019-03-15T15:23:39.755Z,28.20
2019-03-15T15:26:17.643Z,28.10
2019-03-15T15:28:56.902Z,28.00
2019-03-15T15:31:35.423Z,28.00
2019-03-15T15:34:14.266Z,28.00
2019-03-15T15:36:52.526Z,27.90
2019-03-15T15:39:30.856Z,27.90
2019-03-15T15:42:08.895Z,27.80
2019-03-15T15:44:47.565Z,27.80
2019-03-15T15:47:25.712Z,27.90
2019-03-15T15:50:04.128Z,27.80
2019-03-15T15:52:42.632Z,27.80
2019-03-15T15:55:21.543Z,27.80
2019-03-15T15:57:59.860Z,27.80
2019-03-15T16:00:38.382Z,27.70
2019-03-15T16:03:16.592Z,27.70
2019-03-15T16:05:55.236Z,27.60
2019-03-15T16:08:33.792Z,27.70
2019-03-15T16:11:12.452Z,27.70
2019-03-15T16:13:50.922Z,27.70
2019-03-15T16:16:29.545Z,27.80
2019-03-15T16:19:08.290Z,27.80
2019-03-15T16:21:46.845Z,27.80
2019-03-15T16:24:25.562Z,27.70
2019-03-15T16:27:03.947Z,27.70
2019-03-15T16:29:42.888Z,27.60
2019-03-15T16:32:21.463Z,27.60
2019-03-15T16:35:00.617Z,27.70
2019-03-15T16:37:38.773Z,27.80
2019-03-15T16:40:17.549Z,27.90
2019-03-15T16:42:55.973Z,28.00
2019-03-15T16:45:34.329Z,28.30
2019-03-15T16:48:13.022Z,28.20
2019-03-15T16:50:51.948Z,28.10
2019-03-15T16:53:31.158Z,28.10
2019-03-15T16:56:10.072Z,28.10
2019-03-15T16:58:48.463Z,28.10
2019-03-15T17:01:26.714Z,28.00
2019-03-15T17:04:05.542Z,27.90
2019-03-15T17:06:43.120Z,27.90
2019-03-15T17:09:21.315Z,27.90
2019-03-15T17:11:59.463Z,28.00
2019-03-15T17:14:39.390Z,28.00
2019-03-15T17:17:17.268Z,28.00
2019-03-15T17:19:55.493Z,27.90
2019-03-15T17:22:33.519Z,27.80
2019-03-15T17:25:12.219Z,27.80
2019-03-15T17:27:50.736Z,27.80
2019-03-15T17:30:29.275Z,27.80
2019-03-15T17:33:07.700Z,27.80
2019-03-15T17:35:46.326Z,27.70
2019-03-15T17:38:24.544Z,27.70
2019-03-15T17:41:02.826Z,27.70
2019-03-15T17:43:41.409Z,27.70
2019-03-15T17:46:19.802Z,27.60
2019-03-15T17:48:58.413Z,27.40
2019-03-15T17:51:36.643Z,27.30
2019-03-15T17:54:15.398Z,27.20
2019-03-15T17:56:53.842Z,27.20
2019-03-15T17:59:31.926Z,27.10
2019-03-15T18:02:10.380Z,27.10
2019-03-15T18:04:49.002Z,27.10
2019-03-15T18:07:27.293Z,27.10
2019-03-15T18:10:05.869Z,27.10
2019-03-15T18:12:45.139Z,26.90
2019-03-15T18:15:23.850Z,26.70
2019-03-15T18:18:02.618Z,26.80
2019-03-15T18:20:40.964Z,26.80
2019-03-15T18:23:19.894Z,26.80
2019-03-15T18:25:58.234Z,26.80
2019-03-15T18:28:36.793Z,27.00
2019-03-15T18:31:14.977Z,27.20
2019-03-15T18:33:53.593Z,27.30
2019-03-15T18:36:31.559Z,27.20
2019-03-15T18:39:12.045Z,27.10
2019-03-15T18:41:50.635Z,27.10
2019-03-15T18:44:29.036Z,26.90
2019-03-15T18:47:07.539Z,27.00
2019-03-15T18:49:46.038Z,27.00
2019-03-15T18:52:24.412Z,26.90
2019-03-15T18:55:02.741Z,26.90
2019-03-15T18:57:41.383Z,26.80
2019-03-15T19:00:21.869Z,26.80
2019-03-15T19:03:00.476Z,26.70
2019-03-15T19:05:38.529Z,26.70
2019-03-15T19:08:17.143Z,26.70
2019-03-15T19:10:55.718Z,26.80
2019-03-15T19:13:34.234Z,26.70
2019-03-15T19:16:19.904Z,26.60
2019-03-15T19:18:52.531Z,26.40
2019-03-15T19:21:31.017Z,26.30
2019-03-15T19:24:09.353Z,26.20
2019-03-15T19:26:47.579Z,26.20
2019-03-15T19:29:25.849Z,26.00
2019-03-15T19:32:04.403Z,26.00
2019-03-15T19:34:42.753Z,26.00
2019-03-15T19:37:21.615Z,25.80
2019-03-15T19:39:59.721Z,25.90
2019-03-15T19:42:38.179Z,26.00
2019-03-15T19:45:17.394Z,26.10
2019-03-15T19:47:56.169Z,26.20
2019-03-15T19:50:34.583Z,26.20
2019-03-15T19:53:13.970Z,26.00
2019-03-15T19:55:52.485Z,26.00
2019-03-15T19:58:31.184Z,25.90
2019-03-15T20:01:09.412Z,25.80
2019-03-15T20:03:47.949Z,25.70
2019-03-15T20:06:26.294Z,25.70
2019-03-15T20:09:04.855Z,25.80
2019-03-15T20:11:43.426Z,25.90
2019-03-15T20:14:22.921Z,25.90
2019-03-15T20:17:01.347Z,25.80
2019-03-15T20:19:39.713Z,25.80
2019-03-15T20:22:21.043Z,25.90
2019-03-15T20:24:58.570Z,25.70
2019-03-15T20:27:37.166Z,25.60
2019-03-15T20:30:21.938Z,25.50
2019-03-15T20:32:57.328Z,25.40
2019-03-15T20:35:36.258Z,25.30
2019-03-15T20:38:14.915Z,25.20
2019-03-15T20:40:53.207Z,25.20
2019-03-15T20:43:32.177Z,25.20
2019-03-15T20:46:10.458Z,25.30
2019-03-15T20:48:48.762Z,25.30
2019-03-15T20:51:27.109Z,25.10
2019-03-15T20:54:05.745Z,25.00
2019-03-15T20:56:44.375Z,25.20
2019-03-15T20:59:22.788Z,25.10
2019-03-15T21:02:01.142Z,25.20
2019-03-15T21:04:39.688Z,25.10
2019-03-15T21:07:18.187Z,25.00
2019-03-15T21:09:57.847Z,25.10
2019-03-15T21:12:36.410Z,25.10
2019-03-15T21:15:15.307Z,25.10
2019-03-15T21:17:54.083Z,25.10
2019-03-15T21:20:32.358Z,25.10
2019-03-15T21:23:10.816Z,25.00
2019-03-15T21:25:49.908Z,25.00
2019-03-15T21:28:28.690Z,24.90
2019-03-15T21:31:07.132Z,25.00
2019-03-15T21:33:45.536Z,24.90
2019-03-15T21:36:23.849Z,24.90
2019-03-15T21:39:02.464Z,25.10
2019-03-15T21:41:41.212Z,24.90
2019-03-15T21:44:20.367Z,25.00
2019-03-15T21:46:58.825Z,24.90
2019-03-15T21:49:37.000Z,24.80
2019-03-15T21:52:15.331Z,24.90
2019-03-15T21:54:54.127Z,24.90
2019-03-15T21:57:32.232Z,24.90
2019-03-15T22:00:10.727Z,25.00
2019-03-15T22:02:49.172Z,25.00
2019-03-15T22:05:27.462Z,24.90
2019-03-15T22:08:06.053Z,24.90
2019-03-15T22:10:44.472Z,25.10
2019-03-15T22:13:22.906Z,25.00
2019-03-15T22:16:01.302Z,25.10
2019-03-15T22:18:39.484Z,24.90
2019-03-15T22:21:17.847Z,24.80
2019-03-15T22:23:56.507Z,24.80
2019-03-15T22:26:34.737Z,24.80
2019-03-15T22:29:13.266Z,24.70
2019-03-15T22:31:51.620Z,24.70
2019-03-15T22:34:29.883Z,24.70
2019-03-15T22:37:08.204Z,24.80
2019-03-15T22:39:46.765Z,24.90
2019-03-15T22:42:25.239Z,24.70
2019-03-15T22:45:04.470Z,24.50
2019-03-15T22:47:42.829Z,24.50
2019-03-15T22:50:21.163Z,24.50
2019-03-15T22:52:59.894Z,24.50
2019-03-15T22:55:37.854Z,24.30
2019-03-15T22:58:16.565Z,24.30
2019-03-15T23:00:55.380Z,24.40
2019-03-15T23:03:35.082Z,24.30
2019-03-15T23:06:13.940Z,24.10
2019-03-15T23:08:52.512Z,24.00
2019-03-15T23:11:30.785Z,24.00
2019-03-15T23:14:10.380Z,24.10
2019-03-15T23:16:48.772Z,24.30
2019-03-15T23:19:27.062Z,24.20
2019-03-15T23:22:05.379Z,24.20
2019-03-15T23:24:43.959Z,24.10
2019-03-15T23:27:22.441Z,24.10
2019-03-15T23:30:00.724Z,24.10
2019-03-15T23:32:39.162Z,24.00
2019-03-15T23:35:17.912Z,24.00
2019-03-15T23:37:56.171Z,24.00
2019-03-15T23:40:34.927Z,23.90
2019-03-15T23:43:13.372Z,24.00
2019-03-15T23:45:52.564Z,24.00
2019-03-15T23:48:30.861Z,24.00
2019-03-15T23:51:09.505Z,24.00
2019-03-15T23:53:47.645Z,24.00
2019-03-15T23:56:25.824Z,24.00
2019-03-15T23:59:04.289Z,24.20
